Time;durP1;ratioP1;P1;durP2;ratioP2;P2;SDS_P1;SDS_P2;PMS_P1;PMS_P2;Temp;Humidity;BMP_temperature;BMP_pressure;BME280_temperature;BME280_humidity;BME280_pressure;Samples;Min_cycle;Max_cycle;Signal;HPM_P1;HPM_P2
2021/10/31 00:00:51;;;;;;;4.45;3.10;;;;;;;14.82;80.17;98230.69;5118093;27;20438;-52
2021/10/31 00:03:18;;;;;;;3.58;3.10;;;;;;;14.83;79.49;98226.22;5118049;27;20055;-52
2021/10/31 00:05:44;;;;;;;12.02;4.05;;;;;;;14.86;79.78;98218.63;5136216;27;20522;-52
2021/10/31 00:08:10;;;;;;;6.32;3.40;;;;;;;14.95;79.56;98217.19;5136444;27;20054;-52
2021/10/31 00:10:36;;;;;;;6.88;3.50;;;;;;;15.00;78.53;98213.03;5136327;27;20051;-52
2021/10/31 00:13:01;;;;;;;7.68;3.20;;;;;;;15.04;78.70;98209.66;5136343;27;20015;-52
2021/10/31 00:15:27;;;;;;;5.20;3.00;;;;;;;15.11;78.59;98207.66;5117812;27;20023;-52
2021/10/31 00:17:53;;;;;;;10.43;4.45;;;;;;;15.13;79.00;98202.09;5117687;27;20019;-52
2021/10/31 00:20:19;;;;;;;10.30;4.68;;;;;;;15.23;79.07;98196.19;5117762;27;20028;-52
2021/10/31 00:22:47;;;;;;;5.90;3.72;;;;;;;15.25;78.98;98199.38;5136171;27;20088;-52
2021/10/31 00:25:14;;;;;;;8.30;4.03;;;;;;;15.17;79.39;98184.72;5136087;27;20030;-53
2021/10/31 00:27:39;;;;;;;7.55;3.17;;;;;;;15.10;79.71;98190.19;5136030;27;20504;-52
2021/10/31 00:30:05;;;;;;;9.10;3.17;;;;;;;15.10;79.20;98195.47;5135947;27;20024;-52
2021/10/31 00:32:31;;;;;;;7.43;3.88;;;;;;;15.10;79.55;98178.81;5135994;27;20023;-51
2021/10/31 00:34:57;;;;;;;6.43;2.88;;;;;;;15.16;79.35;98183.13;5135948;27;20023;-52
2021/10/31 00:37:23;;;;;;;3.83;2.13;;;;;;;15.25;79.14;98179.06;5117246;27;20068;-52
2021/10/31 00:39:49;;;;;;;3.70;2.65;;;;;;;15.34;78.71;98190.78;5135774;27;20027;-52
2021/10/31 00:42:15;;;;;;;4.88;2.80;;;;;;;15.34;78.60;98188.16;5135745;27;20011;-51
2021/10/31 00:44:40;;;;;;;5.18;3.20;;;;;;;15.23;78.72;98197.00;5135728;27;20114;-52
2021/10/31 00:47:06;;;;;;;7.75;3.53;;;;;;;15.13;79.08;98200.28;5135688;27;20023;-52
2021/10/31 00:49:32;;;;;;;6.53;3.40;;;;;;;15.11;80.02;98185.69;5135641;27;20027;-52
2021/10/31 00:52:00;;;;;;;3.50;2.67;;;;;;;15.19;80.45;98182.63;5117144;27;20015;-51
2021/10/31 00:54:26;;;;;;;7.78;3.55;;;;;;;15.09;79.85;98183.31;5135594;27;20114;-52
2021/10/31 00:56:52;;;;;;;6.13;3.00;;;;;;;14.97;80.10;98195.81;5135517;27;20098;-52
2021/10/31 00:59:18;;;;;;;2.75;1.98;;;;;;;14.87;80.29;98196.44;5135399;27;20035;-51
2021/10/31 01:01:45;;;;;;;8.82;2.80;;;;;;;14.84;80.34;98186.34;5117034;27;20023;-52
2021/10/31 01:04:12;;;;;;;7.28;2.60;;;;;;;14.85;80.63;98193.25;5134623;27;20046;-52
2021/10/31 01:06:57;;;;;;;5.22;3.25;;;;;;;14.86;80.57;98194.84;5116625;27;20043;-52
2021/10/31 01:09:35;;;;;;;4.07;2.30;;;;;;;14.91;80.32;98194.09;5135308;27;20015;-52
2021/10/31 01:12:42;;;;;;;7.25;2.85;;;;;;;14.96;80.56;98199.47;5135262;27;20027;-52
2021/10/31 01:15:23;;;;;;;11.13;2.88;;;;;;;15.13;80.51;98191.53;5116738;27;20100;-52
2021/10/31 01:18:08;;;;;;;11.38;2.35;;;;;;;15.27;79.78;98173.50;5116626;27;20027;-52
2021/10/31 01:20:50;;;;;;;11.00;3.03;;;;;;;15.65;80.21;98170.03;5116653;27;20373;-52
2021/10/31 01:23:20;;;;;;;6.88;2.40;;;;;;;15.78;78.53;98176.84;5116642;27;20110;-52
2021/10/31 01:26:07;;;;;;;7.38;2.65;;;;;;;15.64;77.59;98200.19;5134976;27;20029;-51
2021/10/31 01:28:54;;;;;;;3.55;2.35;;;;;;;15.41;77.29;98195.09;5134975;27;20023;-53
2021/10/31 01:31:42;;;;;;;7.40;2.65;;;;;;;15.28;77.77;98181.19;5134814;27;20011;-52
2021/10/31 01:34:30;;;;;;;3.17;2.10;;;;;;;15.25;77.78;98171.13;5116344;27;20532;-53
2021/10/31 01:37:05;;;;;;;4.93;2.33;;;;;;;15.23;77.72;98159.16;5134721;27;20023;-53
2021/10/31 01:39:44;;;;;;;6.85;2.40;;;;;;;15.30;77.90;98152.66;5116330;27;20031;-53
2021/10/31 01:42:33;;;;;;;4.55;2.30;;;;;;;15.41;75.80;98147.50;5134711;27;20035;-52
2021/10/31 01:45:31;;;;;;;3.53;1.90;;;;;;;15.31;75.56;98146.34;5116180;27;20035;-52
2021/10/31 01:47:59;;;;;;;8.65;1.80;;;;;;;15.23;75.31;98141.47;5134609;27;20056;-51
2021/10/31 01:50:42;;;;;;;3.95;1.80;;;;;;;15.13;75.72;98146.59;5116233;27;20020;-52
2021/10/31 01:53:22;;;;;;;2.38;1.50;;;;;;;15.05;76.05;98134.63;5116299;27;20408;-51
2021/10/31 01:56:02;;;;;;;6.03;2.05;;;;;;;15.07;76.07;98131.72;5134404;27;20128;-51
2021/10/31 01:58:33;;;;;;;4.30;1.88;;;;;;;15.07;76.18;98137.00;5134294;27;20023;-52
2021/10/31 02:01:01;;;;;;;4.07;1.90;;;;;;;15.06;76.29;98135.41;5134303;27;20442;-52
2021/10/31 02:03:30;;;;;;;3.35;2.00;;;;;;;15.07;76.66;98129.06;5134231;27;20392;-52
2021/10/31 02:05:58;;;;;;;6.05;2.35;;;;;;;15.15;76.88;98133.94;5133538;27;20051;-52
2021/10/31 02:08:25;;;;;;;4.40;2.30;;;;;;;15.35;77.23;98134.25;5134171;27;20031;-52
2021/10/31 02:10:52;;;;;;;6.60;2.33;;;;;;;15.61;76.38;98142.47;5115561;27;20022;-51
2021/10/31 02:13:19;;;;;;;12.07;3.85;;;;;;;15.88;76.06;98141.78;5115572;27;20508;-51
2021/10/31 02:15:49;;;;;;;19.55;4.18;;;;;;;16.43;75.43;98138.06;5132875;27;20023;-52
2021/10/31 02:18:17;;;;;;;8.15;3.92;;;;;;;16.88;73.62;98128.91;5134146;27;20019;-52
2021/10/31 02:20:43;;;;;;;6.60;2.80;;;;;;;17.18;72.50;98130.13;5133784;27;20021;-52
2021/10/31 02:23:09;;;;;;;10.88;3.60;;;;;;;17.13;70.44;98127.47;5133791;27;20031;-52
2021/10/31 02:25:36;;;;;;;4.93;2.63;;;;;;;17.04;71.25;98121.03;5115333;27;20547;-52
2021/10/31 02:28:03;;;;;;;7.38;3.20;;;;;;;16.61;70.63;98122.84;5115253;27;20430;-52
2021/10/31 02:30:29;;;;;;;9.20;3.47;;;;;;;16.00;72.20;98115.13;5133685;27;20098;-52
2021/10/31 02:32:55;;;;;;;6.85;3.22;;;;;;;15.74;73.25;98107.75;5133627;27;20553;-51
2021/10/31 02:35:22;;;;;;;9.27;4.13;;;;;;;15.57;73.56;98114.91;5115066;27;20478;-52
2021/10/31 02:37:49;;;;;;;7.65;3.92;;;;;;;15.36;74.83;98104.09;5115006;27;20031;-51
2021/10/31 02:40:18;;;;;;;8.15;4.68;;;;;;;15.21;76.25;98095.97;5114964;27;20034;-51
2021/10/31 02:42:45;;;;;;;6.53;4.63;;;;;;;14.87;77.69;98095.22;5115012;27;20492;-52
2021/10/31 02:45:12;;;;;;;11.40;5.63;;;;;;;14.56;79.38;98102.72;5133427;27;20545;-52
2021/10/31 02:48:00;;;;;;;9.27;4.80;;;;;;;14.47;80.22;98102.28;5133665;27;20030;-52
2021/10/31 02:50:32;;;;;;;14.90;7.35;;;;;;;14.30;80.94;98096.97;5133375;27;20478;-52
2021/10/31 02:53:21;;;;;;;10.10;5.00;;;;;;;14.28;81.16;98082.44;5114829;27;20515;-52
2021/10/31 02:56:12;;;;;;;8.68;5.30;;;;;;;14.30;81.77;98090.91;5133242;27;20026;-52
2021/10/31 02:58:53;;;;;;;8.52;5.00;;;;;;;14.25;81.53;98096.13;5133343;27;20462;-52
2021/10/31 03:01:19;;;;;;;10.00;6.30;;;;;;;14.13;81.71;98101.47;5133264;27;20058;-52
2021/10/31 03:03:45;;;;;;;8.80;6.32;;;;;;;14.12;82.05;98103.28;5133191;27;20510;-51
2021/10/31 03:06:12;;;;;;;8.90;5.82;;;;;;;14.12;81.53;98092.72;5114433;27;20130;-51
2021/10/31 03:08:39;;;;;;;8.93;5.28;;;;;;;14.21;82.39;98079.16;5133078;27;20031;-52
2021/10/31 03:11:08;;;;;;;8.88;7.45;;;;;;;14.23;81.22;98071.81;5132997;27;20027;-52
2021/10/31 03:13:35;;;;;;;6.90;5.88;;;;;;;14.15;81.07;98070.34;5133047;27;20026;-52
2021/10/31 03:16:00;;;;;;;9.18;6.40;;;;;;;14.07;80.80;98066.25;5114454;27;20122;-51
2021/10/31 03:18:26;;;;;;;6.32;4.93;;;;;;;14.01;81.83;98061.94;5114428;27;20109;-51
2021/10/31 03:20:52;;;;;;;10.05;5.45;;;;;;;14.03;81.47;98065.13;5132799;27;20027;-52
2021/10/31 03:23:19;;;;;;;9.25;6.18;;;;;;;14.00;81.52;98073.50;5132899;27;20508;-51
2021/10/31 03:25:45;;;;;;;6.78;6.05;;;;;;;13.96;81.48;98080.31;5132725;27;20019;-52
2021/10/31 03:28:12;;;;;;;13.73;6.40;;;;;;;13.95;81.36;98079.50;5114076;28;20027;-51
2021/10/31 03:30:37;;;;;;;9.02;6.65;;;;;;;13.91;81.94;98073.09;5132792;27;20019;-51
2021/10/31 03:33:04;;;;;;;11.15;7.25;;;;;;;13.94;82.14;98075.28;5132731;28;20532;-52
2021/10/31 03:35:29;;;;;;;13.30;8.00;;;;;;;14.14;82.82;98082.72;5132718;28;20094;-51
2021/10/31 03:37:55;;;;;;;10.15;6.40;;;;;;;14.31;82.05;98079.31;5132605;28;20020;-52
2021/10/31 03:40:21;;;;;;;13.93;7.35;;;;;;;14.39;83.22;98061.25;5114168;28;20029;-51
2021/10/31 03:42:47;;;;;;;13.88;7.80;;;;;;;14.58;82.31;98059.16;5132678;28;20019;-52
2021/10/31 03:45:13;;;;;;;16.42;7.35;;;;;;;14.41;82.87;98039.88;5114194;28;20054;-52
2021/10/31 03:47:49;;;;;;;13.90;7.30;;;;;;;14.38;83.26;98037.72;5132608;28;20051;-51
2021/10/31 03:50:19;;;;;;;9.27;8.38;;;;;;;14.09;82.80;98032.53;5114140;28;20023;-51
2021/10/31 03:52:45;;;;;;;11.68;7.97;;;;;;;13.87;82.98;98026.34;5132586;28;20568;-52
2021/10/31 03:55:13;;;;;;;9.98;7.32;;;;;;;13.70;84.23;98027.13;5132468;28;20051;-52
2021/10/31 03:57:39;;;;;;;11.30;6.95;;;;;;;13.74;84.52;98041.44;5114002;28;20034;-52
2021/10/31 04:00:07;;;;;;;9.05;6.65;;;;;;;13.66;82.74;98051.53;5113977;28;20023;-53
2021/10/31 04:02:34;;;;;;;9.18;6.45;;;;;;;13.52;82.95;98049.19;5113996;28;20115;-52
2021/10/31 04:05:00;;;;;;;10.30;6.57;;;;;;;13.52;83.51;98058.94;5113944;28;20058;-52
2021/10/31 04:07:25;;;;;;;11.88;8.45;;;;;;;13.52;83.75;98058.94;5110396;28;20504;-52
2021/10/31 04:09:51;;;;;;;12.30;8.63;;;;;;;13.54;83.78;98054.22;5110611;28;20027;-53
2021/10/31 04:12:17;;;;;;;9.45;7.25;;;;;;;13.64;84.15;98064.94;5111783;28;20072;-52
2021/10/31 04:14:43;;;;;;;8.40;5.90;;;;;;;13.72;84.13;98058.50;5111838;28;20019;-52
2021/10/31 04:17:08;;;;;;;11.63;7.03;;;;;;;13.76;84.17;98049.91;5110329;28;20034;-52
2021/10/31 04:19:34;;;;;;;7.78;6.63;;;;;;;13.82;84.17;98045.50;5111796;28;20065;-52
2021/10/31 04:22:00;;;;;;;8.57;6.28;;;;;;;13.78;83.75;98044.38;5110412;28;20027;-52
2021/10/31 04:24:26;;;;;;;9.57;6.80;;;;;;;13.69;83.02;98045.81;5111761;28;20020;-52
2021/10/31 04:26:59;;;;;;;8.13;6.63;;;;;;;13.61;82.96;98046.19;5110359;28;20049;-52
2021/10/31 04:29:25;;;;;;;7.55;6.05;;;;;;;13.57;83.45;98040.56;5110364;28;20058;-53
2021/10/31 04:31:51;;;;;;;8.18;6.75;;;;;;;13.60;83.92;98040.09;5111667;28;20039;-52
2021/10/31 04:34:17;;;;;;;10.77;8.13;;;;;;;13.70;83.73;98028.94;5095787;28;20500;-52
2021/10/31 04:36:44;;;;;;;13.50;6.90;;;;;;;13.73;83.87;98025.84;5111551;28;20107;-52
2021/10/31 04:39:10;;;;;;;11.02;6.88;;;;;;;14.03;84.11;98036.13;5113309;28;20023;-52
2021/10/31 04:41:37;;;;;;;8.30;6.22;;;;;;;14.04;83.92;98036.91;5113933;28;20038;-52
2021/10/31 04:44:03;;;;;;;9.05;6.68;;;;;;;13.93;83.10;98038.59;5115255;28;20019;-52
2021/10/31 04:46:28;;;;;;;9.52;6.53;;;;;;;13.81;82.77;98035.22;5115170;28;20503;-52
2021/10/31 04:48:54;;;;;;;14.20;8.05;;;;;;;13.68;82.63;98023.91;5113918;28;20488;-52
2021/10/31 04:51:20;;;;;;;8.50;7.43;;;;;;;13.48;83.19;98031.44;5096788;28;20023;-52
2021/10/31 04:53:45;;;;;;;8.25;7.13;;;;;;;13.46;82.99;98028.22;5113721;28;20084;-51
2021/10/31 04:56:11;;;;;;;10.70;7.10;;;;;;;13.44;83.08;98022.41;5113656;28;20020;-52
2021/10/31 04:58:36;;;;;;;9.00;7.43;;;;;;;13.42;82.88;98016.56;5113597;28;20412;-52
2021/10/31 05:01:04;;;;;;;10.23;8.35;;;;;;;13.35;83.04;98022.78;5113595;28;20023;-52
2021/10/31 05:03:29;;;;;;;11.15;8.65;;;;;;;13.39;82.94;98023.91;5114803;28;20019;-53
2021/10/31 05:05:55;;;;;;;10.45;8.57;;;;;;;13.35;83.59;98021.97;5122081;27;20066;-52
2021/10/31 05:08:20;;;;;;;8.70;7.78;;;;;;;13.46;83.62;98022.97;5135252;27;20142;-52
2021/10/31 05:10:46;;;;;;;8.73;7.78;;;;;;;13.56;82.91;98009.97;5135271;27;20495;-52
2021/10/31 05:13:12;;;;;;;9.40;8.05;;;;;;;13.56;82.23;98010.78;5116715;27;20023;-52
2021/10/31 05:15:38;;;;;;;10.32;8.68;;;;;;;13.50;82.04;98026.72;5116701;27;20019;-52
2021/10/31 05:18:04;;;;;;;10.82;8.93;;;;;;;13.54;82.07;98010.22;5135065;27;20034;-52
2021/10/31 05:20:29;;;;;;;10.27;7.90;;;;;;;13.49;82.03;98017.22;5135035;27;20019;-51
2021/10/31 05:22:55;;;;;;;8.85;7.80;;;;;;;13.61;81.91;98015.34;5135052;27;20023;-52
2021/10/31 05:25:21;;;;;;;12.55;7.88;;;;;;;13.72;80.74;98011.03;5116482;27;20038;-52
2021/10/31 05:27:47;;;;;;;9.18;7.70;;;;;;;13.82;80.64;98013.06;5135002;27;20027;-52
2021/10/31 05:30:13;;;;;;;8.63;7.28;;;;;;;13.85;80.35;98013.38;5134883;27;20087;-52
2021/10/31 05:32:41;;;;;;;10.05;7.97;;;;;;;13.84;80.25;98014.41;5116360;27;20034;-52
2021/10/31 05:35:11;;;;;;;9.48;6.88;;;;;;;13.83;80.82;98012.81;5116327;27;20045;-51
2021/10/31 05:37:41;;;;;;;11.18;6.38;;;;;;;14.02;80.19;98004.69;5134729;27;20458;-52
2021/10/31 05:40:10;;;;;;;16.17;7.07;;;;;;;14.30;80.31;98006.44;5134775;27;20034;-52
2021/10/31 05:42:37;;;;;;;10.52;5.88;;;;;;;14.69;79.88;98012.59;5134635;27;20389;-51
2021/10/31 05:45:03;;;;;;;9.95;6.60;;;;;;;14.87;77.18;98013.34;5134610;27;20015;-51
2021/10/31 05:47:28;;;;;;;7.50;6.70;;;;;;;14.70;75.82;98021.31;5116070;27;20118;-51
2021/10/31 05:49:55;;;;;;;8.48;7.50;;;;;;;14.31;76.74;98003.56;5134286;27;20118;-51
2021/10/31 05:52:20;;;;;;;11.80;7.80;;;;;;;14.01;77.48;98006.53;5134417;27;20023;-51
2021/10/31 05:54:47;;;;;;;10.15;7.13;;;;;;;13.96;78.48;98001.16;5115912;27;20076;-51
2021/10/31 05:57:12;;;;;;;12.10;7.32;;;;;;;14.16;78.45;97996.19;5115985;27;20079;-52
2021/10/31 05:59:38;;;;;;;10.95;6.72;;;;;;;14.20;78.16;97996.53;5134272;27;20504;-52
2021/10/31 06:02:08;;;;;;;13.57;6.82;;;;;;;14.05;78.24;98005.00;5134242;27;20023;-52
2021/10/31 06:04:34;;;;;;;15.40;6.35;;;;;;;14.03;78.51;98007.09;5134254;27;20100;-51
2021/10/31 06:07:00;;;;;;;10.48;7.93;;;;;;;13.97;77.84;98005.41;5133899;27;20068;-52
2021/10/31 06:09:25;;;;;;;10.38;8.38;;;;;;;13.81;78.46;98014.91;5134110;27;20026;-52
2021/10/31 06:11:51;;;;;;;9.48;8.18;;;;;;;13.71;78.41;98010.25;5134019;27;20015;-51
2021/10/31 06:14:17;;;;;;;12.30;8.10;;;;;;;13.70;78.92;98016.56;5115580;27;20023;-51
2021/10/31 06:16:42;;;;;;;10.45;7.25;;;;;;;13.74;78.66;98019.50;5115328;27;20023;-51
2021/10/31 06:19:09;;;;;;;9.63;7.85;;;;;;;13.70;78.95;98008.66;5133886;27;20427;-51
2021/10/31 06:21:34;;;;;;;10.10;7.38;;;;;;;13.76;79.08;98005.06;5133878;27;20110;-51
2021/10/31 06:24:00;;;;;;;9.43;7.15;;;;;;;13.81;78.11;98003.56;5133810;27;20555;-51
2021/10/31 06:26:26;;;;;;;8.07;6.82;;;;;;;13.90;78.13;97996.84;5115339;27;20027;-52
2021/10/31 06:28:51;;;;;;;11.18;7.50;;;;;;;13.79;78.64;97998.50;5133753;27;20029;-52
2021/10/31 06:31:17;;;;;;;17.38;7.80;;;;;;;13.89;78.15;97988.13;5133545;27;20031;-51
2021/10/31 06:33:43;;;;;;;8.20;7.28;;;;;;;13.88;78.00;97988.38;5133618;27;20023;-51
2021/10/31 06:36:40;;;;;;;8.63;7.00;;;;;;;13.96;78.48;97980.88;5115166;27;20461;-52
2021/10/31 06:39:06;;;;;;;10.13;7.68;;;;;;;13.92;77.43;97987.66;5133429;27;20034;-51
2021/10/31 06:41:33;;;;;;;9.82;8.05;;;;;;;13.91;77.57;97991.34;5133504;27;20011;-52
2021/10/31 06:43:58;;;;;;;11.27;7.10;;;;;;;13.85;78.07;97991.50;5133481;27;20037;-52
2021/10/31 06:46:25;;;;;;;8.85;6.55;;;;;;;13.93;78.57;98006.94;5133440;27;20019;-52
2021/10/31 06:48:52;;;;;;;7.35;6.50;;;;;;;14.03;77.68;98012.38;5133377;27;20046;-51
2021/10/31 06:51:19;;;;;;;8.10;6.70;;;;;;;14.09;78.22;98015.91;5133320;27;20021;-52
2021/10/31 06:53:45;;;;;;;9.15;6.75;;;;;;;14.19;77.47;98005.50;5133286;27;20422;-52
2021/10/31 06:56:11;;;;;;;8.05;5.95;;;;;;;14.51;76.63;98010.19;5133231;27;20072;-52
2021/10/31 06:58:37;;;;;;;9.13;6.25;;;;;;;14.65;75.65;97995.63;5114690;27;20147;-51
2021/10/31 07:01:04;;;;;;;7.10;6.40;;;;;;;14.58;75.61;97995.78;5132596;27;20018;-52
2021/10/31 07:03:30;;;;;;;10.95;6.50;;;;;;;14.54;75.14;97992.00;5133202;27;20463;-52
2021/10/31 07:05:56;;;;;;;7.82;5.80;;;;;;;14.62;74.91;97972.34;5132803;27;20114;-51
2021/10/31 07:08:22;;;;;;;6.50;5.90;;;;;;;14.80;74.33;97968.63;5133125;27;20114;-52
2021/10/31 07:10:48;;;;;;;8.55;6.88;;;;;;;14.75;73.64;97956.16;5132966;27;20016;-52
2021/10/31 07:13:14;;;;;;;9.90;6.90;;;;;;;14.60;73.96;97957.78;5132971;27;20042;-52
2021/10/31 07:15:40;;;;;;;9.32;7.03;;;;;;;14.50;74.47;97964.50;5132941;27;20102;-51
2021/10/31 07:18:05;;;;;;;9.15;8.25;;;;;;;14.45;75.01;97974.22;5132852;27;20047;-52
2021/10/31 07:20:32;;;;;;;13.70;8.75;;;;;;;14.31;74.48;97974.53;5132902;27;20027;-52
2021/10/31 07:22:58;;;;;;;8.40;6.85;;;;;;;14.27;75.55;97977.91;5132869;27;20027;-52
2021/10/31 07:25:26;;;;;;;9.48;8.27;;;;;;;14.28;75.70;97961.81;5132881;27;20019;-52
2021/10/31 07:27:52;;;;;;;12.45;8.60;;;;;;;14.15;75.50;97970.88;5132841;27;20027;-51
2021/10/31 07:30:19;;;;;;;9.90;8.55;;;;;;;14.07;76.19;97973.13;5132774;27;20021;-52
2021/10/31 07:32:51;;;;;;;11.48;7.55;;;;;;;14.10;76.15;97959.44;5132764;27;20030;-51
2021/10/31 07:35:17;;;;;;;7.75;6.32;;;;;;;14.27;76.10;97951.53;5132806;28;20492;-52
2021/10/31 07:37:43;;;;;;;9.48;7.03;;;;;;;14.64;75.61;97954.41;5132572;28;20027;-52
2021/10/31 07:40:09;;;;;;;9.60;7.97;;;;;;;14.84;73.58;97961.81;5132688;28;20031;-52
2021/10/31 07:42:37;;;;;;;9.60;8.13;;;;;;;14.96;73.81;97972.25;5132669;28;20015;-52
2021/10/31 07:45:04;;;;;;;12.65;8.32;;;;;;;15.08;73.62;97978.19;5132520;28;20031;-52
2021/10/31 07:47:29;;;;;;;15.50;8.52;;;;;;;15.25;73.70;97972.84;5132561;28;20488;-51
2021/10/31 07:49:55;;;;;;;9.32;7.00;;;;;;;15.63;72.76;97968.44;5132667;28;20065;-52
2021/10/31 07:52:22;;;;;;;8.10;6.60;;;;;;;16.01;70.67;97969.34;5132587;28;20110;-52
2021/10/31 07:54:49;;;;;;;8.68;6.80;;;;;;;16.74;68.19;97964.25;5132628;28;20027;-52
2021/10/31 07:57:18;;;;;;;9.07;7.15;;;;;;;17.74;65.75;97952.56;5132564;28;20370;-52
2021/10/31 07:59:44;;;;;;;8.32;5.78;;;;;;;18.61;62.23;97945.59;5132850;28;20395;-52
2021/10/31 08:02:10;;;;;;;8.70;5.85;;;;;;;19.26;60.75;97940.28;5132516;28;20015;-52
2021/10/31 08:04:36;;;;;;;6.45;5.20;;;;;;;19.90;59.25;97941.19;5132456;28;20032;-52
2021/10/31 08:07:03;;;;;;;6.28;5.03;;;;;;;20.48;56.06;97938.50;5132206;28;20054;-50
2021/10/31 08:09:28;;;;;;;8.07;4.97;;;;;;;20.01;55.76;97931.25;5132452;28;20023;-50
2021/10/31 08:11:54;;;;;;;6.50;4.47;;;;;;;20.11;56.10;97939.94;5132343;28;20369;-50
2021/10/31 08:14:20;;;;;;;5.60;5.05;;;;;;;20.64;54.79;97931.16;5136287;27;20051;-50
2021/10/31 08:16:46;;;;;;;4.47;4.07;;;;;;;21.10;53.53;97927.91;5117780;27;20038;-50
2021/10/31 08:19:12;;;;;;;4.93;4.32;;;;;;;21.46;52.65;97932.78;5136275;27;20019;-50
2021/10/31 08:21:38;;;;;;;4.80;4.18;;;;;;;21.56;51.91;97928.38;5136302;27;20393;-50
2021/10/31 08:24:07;;;;;;;6.05;3.67;;;;;;;21.18;52.58;97944.38;5136198;27;20124;-51
2021/10/31 08:26:33;;;;;;;6.45;4.88;;;;;;;20.51;54.32;97948.59;5136138;27;20023;-50
2021/10/31 08:29:01;;;;;;;5.32;3.90;;;;;;;20.12;55.29;97949.53;5136122;27;20015;-50
2021/10/31 08:31:33;;;;;;;8.57;3.58;;;;;;;19.72;55.90;97953.31;5136035;27;20399;-50
2021/10/31 08:34:00;;;;;;;3.63;3.30;;;;;;;19.35;57.17;97941.28;5136090;27;20023;-49
2021/10/31 08:36:27;;;;;;;4.43;3.10;;;;;;;19.21;57.98;97943.75;5135843;27;20512;-50
2021/10/31 08:38:53;;;;;;;5.30;3.10;;;;;;;19.15;58.36;97942.19;5135998;27;20061;-51
2021/10/31 08:41:24;;;;;;;8.40;3.38;;;;;;;19.06;59.22;97941.19;5135829;27;20069;-50
2021/10/31 08:43:51;;;;;;;5.18;2.92;;;;;;;19.02;59.82;97934.84;5135954;27;20031;-51
2021/10/31 08:46:17;;;;;;;6.75;5.25;;;;;;;19.09;59.84;97936.09;5135772;27;20026;-51
2021/10/31 08:48:43;;;;;;;3.72;2.40;;;;;;;19.02;59.60;97932.97;5135707;27;20023;-50
2021/10/31 08:51:09;;;;;;;4.10;2.70;;;;;;;18.89;59.62;97928.22;5135719;27;20064;-51
2021/10/31 08:53:37;;;;;;;2.33;1.92;;;;;;;18.90;60.07;97927.97;5135639;27;20020;-50
2021/10/31 08:56:05;;;;;;;3.47;2.50;;;;;;;18.93;59.69;97924.78;5117107;27;20377;-50
2021/10/31 08:58:31;;;;;;;4.68;2.17;;;;;;;18.88;59.94;97916.81;5135515;27;20020;-51
2021/10/31 09:00:57;;;;;;;2.15;1.60;;;;;;;18.70;60.14;97904.91;5135496;27;20510;-50
2021/10/31 09:03:23;;;;;;;1.58;0.90;;;;;;;18.43;60.96;97897.31;5135402;27;20068;-51
2021/10/31 09:05:50;;;;;;;1.95;1.15;;;;;;;18.35;61.65;97880.06;5135125;27;20039;-51
2021/10/31 09:08:17;;;;;;;3.22;0.80;;;;;;;18.54;61.13;97866.94;5135293;27;20034;-51
2021/10/31 09:10:43;;;;;;;1.60;1.15;;;;;;;18.70;60.54;97869.56;5135301;27;20043;-50
2021/10/31 09:13:10;;;;;;;3.75;1.90;;;;;;;18.84;60.46;97870.56;5135244;27;20065;-51
2021/10/31 09:15:37;;;;;;;5.22;1.67;;;;;;;19.04;60.53;97884.84;5135202;27;20050;-50
2021/10/31 09:18:04;;;;;;;1.95;1.10;;;;;;;19.58;59.58;97889.25;5135125;27;20015;-50
2021/10/31 09:20:31;;;;;;;2.90;1.40;;;;;;;20.92;56.48;97876.13;5135120;27;20026;-50
2021/10/31 09:22:58;;;;;;;2.45;1.50;;;;;;;21.68;53.83;97875.31;5135116;27;20019;-49
2021/10/31 09:25:27;;;;;;;3.17;1.40;;;;;;;21.54;53.14;97872.59;5115887;27;20396;-50
2021/10/31 09:27:56;;;;;;;1.98;1.00;;;;;;;21.30;53.39;97878.78;5135006;27;20031;-50
2021/10/31 09:30:25;;;;;;;1.63;0.70;;;;;;;21.11;53.49;97878.81;5134983;27;20028;-50
2021/10/31 09:32:51;;;;;;;1.45;0.98;;;;;;;21.76;52.32;97876.50;5116430;27;20467;-49
2021/10/31 09:35:26;;;;;;;1.40;0.82;;;;;;;22.20;50.44;97883.22;5134802;27;20026;-50
2021/10/31 09:37:56;;;;;;;1.55;0.80;;;;;;;22.38;50.98;97877.00;5116641;27;20083;-50
2021/10/31 09:40:23;;;;;;;2.58;0.63;;;;;;;22.28;50.16;97885.22;5134755;27;20031;-51
2021/10/31 09:42:51;;;;;;;1.52;0.50;;;;;;;22.26;50.97;97885.50;5134713;27;20129;-50
2021/10/31 09:45:20;;;;;;;2.88;0.52;;;;;;;22.28;50.95;97878.00;5134652;27;20523;-51
2021/10/31 09:47:54;;;;;;;1.63;0.70;;;;;;;22.53;50.37;97875.91;5134548;27;20023;-50
2021/10/31 09:50:21;;;;;;;1.38;0.50;;;;;;;23.09;49.26;97864.03;5116004;27;20039;-50
2021/10/31 09:52:47;;;;;;;2.95;1.00;;;;;;;23.59;47.73;97857.78;5116076;27;20117;-50
2021/10/31 09:55:13;;;;;;;3.50;0.52;;;;;;;24.41;46.12;97852.16;5134425;27;20029;-50
2021/10/31 09:57:39;;;;;;;1.08;0.68;;;;;;;25.23;43.95;97842.53;5134332;27;20054;-50
2021/10/31 10:00:06;;;;;;;0.50;0.50;;;;;;;25.82;42.89;97841.94;5134340;27;20054;-50
2021/10/31 10:05:03;;;;;;;1.70;0.82;;;;;;;27.29;39.73;97834.13;5134280;27;20033;-50
2021/10/31 10:07:30;;;;;;;0.63;0.60;;;;;;;27.28;39.24;97824.47;5134129;27;20077;-50
2021/10/31 10:09:56;;;;;;;5.50;0.68;;;;;;;26.81;39.28;97822.00;5134178;27;20023;-51
2021/10/31 10:12:24;;;;;;;1.73;0.85;;;;;;;26.29;40.77;97828.47;5115529;27;20019;-50
2021/10/31 10:14:54;;;;;;;6.40;1.02;;;;;;;26.47;41.12;97820.31;5134085;27;20022;-51
2021/10/31 10:17:21;;;;;;;1.33;0.80;;;;;;;26.36;39.93;97827.16;5133888;27;20033;-51
2021/10/31 10:19:51;;;;;;;2.95;0.80;;;;;;;25.78;41.27;97830.25;5133981;27;20019;-50
2021/10/31 10:22:23;;;;;;;2.47;0.73;;;;;;;25.53;42.28;97831.88;5133906;27;20034;-50
2021/10/31 10:24:53;;;;;;;2.08;1.48;;;;;;;25.55;42.61;97829.66;5133917;27;20019;-50
2021/10/31 10:27:26;;;;;;;1.17;0.60;;;;;;;25.69;42.19;97819.50;5115665;28;20057;-50
2021/10/31 10:29:52;;;;;;;0.90;0.60;;;;;;;25.56;41.76;97812.44;5133830;27;20038;-50
2021/10/31 10:32:21;;;;;;;1.10;0.40;;;;;;;25.08;42.72;97814.22;5133739;27;20063;-51
2021/10/31 10:34:58;;;;;;;9.35;1.15;;;;;;;24.62;44.79;97817.53;5133749;27;20015;-51
2021/10/31 10:37:25;;;;;;;1.58;0.50;;;;;;;24.74;44.51;97806.97;5114226;27;20460;-51
2021/10/31 10:39:57;;;;;;;1.40;0.70;;;;;;;25.03;44.66;97814.41;5133614;27;20075;-50
2021/10/31 10:42:26;;;;;;;2.75;0.50;;;;;;;25.44;43.22;97797.00;5133587;27;20034;-50
2021/10/31 10:45:16;;;;;;;0.68;0.50;;;;;;;25.55;42.79;97810.06;5133518;27;20430;-51
2021/10/31 10:48:04;;;;;;;1.15;0.60;;;;;;;25.96;42.06;97808.69;5133521;27;20030;-51
2021/10/31 10:50:41;;;;;;;1.50;0.50;;;;;;;26.71;40.43;97806.25;5132840;27;20039;-50
2021/10/31 10:53:16;;;;;;;0.70;0.50;;;;;;;26.73;40.81;97801.31;5133333;27;20564;-50
2021/10/31 10:55:43;;;;;;;2.15;0.52;;;;;;;26.92;40.42;97803.53;5133272;27;20140;-51
2021/10/31 10:58:15;;;;;;;0.68;0.50;;;;;;;27.12;39.47;97791.16;5133185;27;20031;-51
2021/10/31 11:00:50;;;;;;;1.23;0.50;;;;;;;27.09;39.48;97772.97;5133211;27;20079;-50
2021/10/31 11:03:20;;;;;;;0.85;0.40;;;;;;;27.09;39.05;97783.75;5133242;27;20396;-51
2021/10/31 11:06:01;;;;;;;0.75;0.50;;;;;;;26.87;39.95;97777.59;5132898;27;20046;-51
2021/10/31 11:08:27;;;;;;;4.85;1.38;;;;;;;26.85;39.32;97774.44;5133189;27;20023;-51
2021/10/31 11:10:59;;;;;;;2.33;0.40;;;;;;;26.99;39.60;97773.41;5133048;27;20102;-51
2021/10/31 11:13:26;;;;;;;5.00;0.50;;;;;;;27.44;38.98;97778.03;5133079;27;20019;-51
2021/10/31 11:16:02;;;;;;;1.27;0.50;;;;;;;28.01;38.89;97769.16;5133014;27;20030;-50
2021/10/31 11:18:29;;;;;;;3.25;0.60;;;;;;;28.80;37.56;97768.78;5132879;27;20023;-51
2021/10/31 11:20:54;;;;;;;1.15;0.50;;;;;;;29.23;36.58;97769.97;5132804;27;20417;-51
2021/10/31 11:23:22;;;;;;;3.10;0.75;;;;;;;29.72;35.89;97765.41;5132936;27;20096;-50
2021/10/31 11:25:49;;;;;;;1.50;0.43;;;;;;;29.68;35.28;97768.81;5132841;27;20023;-50
2021/10/31 11:28:17;;;;;;;2.70;1.13;;;;;;;29.76;34.63;97769.00;5132822;27;20453;-50
2021/10/31 11:30:47;;;;;;;0.88;0.50;;;;;;;29.59;35.43;97764.69;5132789;27;20019;-50
2021/10/31 11:33:14;;;;;;;3.75;0.40;;;;;;;29.44;34.86;97761.66;5132801;27;20480;-50
2021/10/31 11:35:41;;;;;;;4.47;0.63;;;;;;;29.33;35.36;97743.56;5114266;28;20027;-50
2021/10/31 11:38:10;;;;;;;5.55;0.70;;;;;;;29.02;35.39;97750.47;5132679;28;20030;-51
2021/10/31 11:41:03;;;;;;;3.30;0.95;;;;;;;28.62;36.25;97743.22;5132724;28;20430;-51